sensor_id;sensor_type;location;lat;lon;timestamp;pressure;altitude;pressure_sealevel;temperature;humidity
50550;BME280;36505;52.512;13.460;2023-07-13T00:01:26;100712.72;;;20.47;54.03
50550;BME280;36505;52.512;13.460;2023-07-13T00:03:52;100738.91;;;20.60;53.81
50550;BME280;36505;52.512;13.460;2023-07-13T00:06:17;100718.63;;;20.46;54.12
50550;BME280;36505;52.512;13.460;2023-07-13T00:08:42;100730.16;;;20.53;53.98
50550;BME280;36505;52.512;13.460;2023-07-13T00:11:08;100730.75;;;20.50;54.36
50550;BME280;36505;52.512;13.460;2023-07-13T00:13:35;100724.59;;;20.39;54.36
50550;BME280;36505;52.512;13.460;2023-07-13T00:16:03;100738.69;;;20.43;54.70
50550;BME280;36505;52.512;13.460;2023-07-13T00:18:29;100732.13;;;20.39;54.53
50550;BME280;36505;52.512;13.460;2023-07-13T00:20:55;100747.16;;;20.38;54.73
50550;BME280;36505;52.512;13.460;2023-07-13T00:23:21;100747.97;;;20.38;54.53
50550;BME280;36505;52.512;13.460;2023-07-13T00:25:46;100740.63;;;20.29;54.74
50550;BME280;36505;52.512;13.460;2023-07-13T00:28:11;100746.94;;;20.34;54.92
50550;BME280;36505;52.512;13.460;2023-07-13T00:30:37;100748.88;;;20.34;55.09
50550;BME280;36505;52.512;13.460;2023-07-13T00:33:02;100746.72;;;20.31;55.35
50550;BME280;36505;52.512;13.460;2023-07-13T00:35:30;100751.13;;;20.32;54.82
50550;BME280;36505;52.512;13.460;2023-07-13T00:37:56;100740.94;;;20.27;54.83
50550;BME280;36505;52.512;13.460;2023-07-13T00:40:21;100744.34;;;20.24;54.82
50550;BME280;36505;52.512;13.460;2023-07-13T00:42:47;100731.38;;;20.20;54.84
50550;BME280;36505;52.512;13.460;2023-07-13T00:47:41;100734.53;;;20.13;54.52
50550;BME280;36505;52.512;13.460;2023-07-13T00:50:09;100747.63;;;20.13;54.79
50550;BME280;36505;52.512;13.460;2023-07-13T00:52:38;100738.25;;;20.08;54.72
50550;BME280;36505;52.512;13.460;2023-07-13T00:55:05;100740.91;;;20.13;54.53
50550;BME280;36505;52.512;13.460;2023-07-13T00:57:31;100743.81;;;20.08;54.40
50550;BME280;36505;52.512;13.460;2023-07-13T00:59:58;100746.69;;;20.03;54.45
50550;BME280;36505;52.512;13.460;2023-07-13T01:02:26;100738.53;;;19.93;55.00
50550;BME280;36505;52.512;13.460;2023-07-13T01:04:51;100750.91;;;20.01;55.05
50550;BME280;36505;52.512;13.460;2023-07-13T01:07:17;100741.00;;;19.95;54.87
50550;BME280;36505;52.512;13.460;2023-07-13T01:09:44;100747.69;;;19.94;55.16
50550;BME280;36505;52.512;13.460;2023-07-13T01:12:11;100747.59;;;19.85;55.45
50550;BME280;36505;52.512;13.460;2023-07-13T01:14:36;100734.31;;;19.82;55.59
50550;BME280;36505;52.512;13.460;2023-07-13T01:17:02;100728.13;;;19.71;55.38
50550;BME280;36505;52.512;13.460;2023-07-13T01:19:42;100747.06;;;19.83;55.48
50550;BME280;36505;52.512;13.460;2023-07-13T01:22:17;100755.72;;;19.82;55.66
50550;BME280;36505;52.512;13.460;2023-07-13T01:24:46;100755.50;;;19.78;55.54
50550;BME280;36505;52.512;13.460;2023-07-13T01:27:15;100757.88;;;19.71;55.36
50550;BME280;36505;52.512;13.460;2023-07-13T01:29:43;100756.50;;;19.68;55.89
50550;BME280;36505;52.512;13.460;2023-07-13T01:32:11;100759.38;;;19.63;55.32
50550;BME280;36505;52.512;13.460;2023-07-13T01:34:37;100751.34;;;19.62;55.63
50550;BME280;36505;52.512;13.460;2023-07-13T01:37:04;100749.41;;;19.62;55.91
50550;BME280;36505;52.512;13.460;2023-07-13T01:39:30;100744.75;;;19.58;56.27
50550;BME280;36505;52.512;13.460;2023-07-13T01:41:55;100744.53;;;19.54;56.17
50550;BME280;36505;52.512;13.460;2023-07-13T01:44:20;100755.03;;;19.57;55.96
50550;BME280;36505;52.512;13.460;2023-07-13T01:46:46;100749.78;;;19.56;56.28
50550;BME280;36505;52.512;13.460;2023-07-13T01:49:11;100749.25;;;19.54;56.51
50550;BME280;36505;52.512;13.460;2023-07-13T01:51:37;100739.91;;;19.50;56.84
50550;BME280;36505;52.512;13.460;2023-07-13T01:54:02;100738.53;;;19.47;56.68
50550;BME280;36505;52.512;13.460;2023-07-13T01:56:27;100728.31;;;19.43;57.06
50550;BME280;36505;52.512;13.460;2023-07-13T01:58:53;100728.63;;;19.41;57.15
50550;BME280;36505;52.512;13.460;2023-07-13T02:01:18;100735.53;;;19.44;57.35
50550;BME280;36505;52.512;13.460;2023-07-13T02:03:43;100734.69;;;19.43;56.93
50550;BME280;36505;52.512;13.460;2023-07-13T02:06:09;100751.06;;;19.45;56.07
50550;BME280;36505;52.512;13.460;2023-07-13T02:08:34;100752.69;;;19.46;56.12
50550;BME280;36505;52.512;13.460;2023-07-13T02:11:02;100748.59;;;19.43;56.63
50550;BME280;36505;52.512;13.460;2023-07-13T02:13:27;100755.19;;;19.47;57.71
50550;BME280;36505;52.512;13.460;2023-07-13T02:15:53;100735.91;;;19.37;57.16
50550;BME280;36505;52.512;13.460;2023-07-13T02:18:18;100755.25;;;19.42;57.55
50550;BME280;36505;52.512;13.460;2023-07-13T02:20:44;100758.03;;;19.42;57.73
50550;BME280;36505;52.512;13.460;2023-07-13T02:23:10;100750.00;;;19.41;57.69
50550;BME280;36505;52.512;13.460;2023-07-13T02:25:35;100740.66;;;19.37;58.04
50550;BME280;36505;52.512;13.460;2023-07-13T02:28:00;100721.81;;;19.33;58.08
50550;BME280;36505;52.512;13.460;2023-07-13T02:30:27;100718.44;;;19.37;58.36
50550;BME280;36505;52.512;13.460;2023-07-13T02:32:55;100726.44;;;19.38;58.56
50550;BME280;36505;52.512;13.460;2023-07-13T02:35:20;100723.47;;;19.34;58.30
50550;BME280;36505;52.512;13.460;2023-07-13T02:37:46;100720.16;;;19.32;58.62
50550;BME280;36505;52.512;13.460;2023-07-13T02:40:11;100731.59;;;19.31;58.43
50550;BME280;36505;52.512;13.460;2023-07-13T02:42:36;100739.09;;;19.30;58.88
50550;BME280;36505;52.512;13.460;2023-07-13T02:45:02;100735.34;;;19.21;58.53
50550;BME280;36505;52.512;13.460;2023-07-13T02:47:27;100739.22;;;19.20;58.38
50550;BME280;36505;52.512;13.460;2023-07-13T02:49:53;100737.28;;;19.21;58.53
50550;BME280;36505;52.512;13.460;2023-07-13T02:52:18;100743.13;;;19.19;58.28
50550;BME280;36505;52.512;13.460;2023-07-13T02:54:43;100743.22;;;19.14;58.68
50550;BME280;36505;52.512;13.460;2023-07-13T02:57:09;100757.53;;;19.21;58.18
50550;BME280;36505;52.512;13.460;2023-07-13T02:59:34;100759.50;;;19.21;58.34
50550;BME280;36505;52.512;13.460;2023-07-13T03:02:01;100734.44;;;19.07;58.59
50550;BME280;36505;52.512;13.460;2023-07-13T03:04:27;100754.78;;;19.21;59.11
50550;BME280;36505;52.512;13.460;2023-07-13T03:06:52;100764.31;;;19.15;59.12
50550;BME280;36505;52.512;13.460;2023-07-13T03:09:18;100772.53;;;19.20;59.17
50550;BME280;36505;52.512;13.460;2023-07-13T03:11:43;100772.00;;;19.18;59.43
50550;BME280;36505;52.512;13.460;2023-07-13T03:14:08;100764.84;;;19.17;59.47
50550;BME280;36505;52.512;13.460;2023-07-13T03:16:34;100770.31;;;19.22;59.60
50550;BME280;36505;52.512;13.460;2023-07-13T03:18:59;100775.03;;;19.22;59.58
50550;BME280;36505;52.512;13.460;2023-07-13T03:21:25;100776.16;;;19.21;59.95
50550;BME280;36505;52.512;13.460;2023-07-13T03:23:50;100775.03;;;19.22;59.96
50550;BME280;36505;52.512;13.460;2023-07-13T03:26:19;100750.50;;;19.10;59.84
50550;BME280;36505;52.512;13.460;2023-07-13T03:28:45;100781.09;;;19.24;60.29
50550;BME280;36505;52.512;13.460;2023-07-13T03:31:15;100772.53;;;19.20;59.96
50550;BME280;36505;52.512;13.460;2023-07-13T03:33:42;100772.63;;;19.15;60.11
50550;BME280;36505;52.512;13.460;2023-07-13T03:36:15;100784.47;;;19.21;60.14
50550;BME280;36505;52.512;13.460;2023-07-13T03:38:45;100799.09;;;19.26;60.06
50550;BME280;36505;52.512;13.460;2023-07-13T03:41:11;100776.44;;;19.19;60.42
50550;BME280;36505;52.512;13.460;2023-07-13T03:43:36;100786.66;;;19.24;60.09
50550;BME280;36505;52.512;13.460;2023-07-13T03:46:02;100787.16;;;19.26;60.39
50550;BME280;36505;52.512;13.460;2023-07-13T03:48:27;100792.97;;;19.29;60.08
50550;BME280;36505;52.512;13.460;2023-07-13T03:50:53;100778.25;;;19.29;60.24
50550;BME280;36505;52.512;13.460;2023-07-13T03:53:18;100784.00;;;19.32;59.85
50550;BME280;36505;52.512;13.460;2023-07-13T03:55:44;100797.69;;;19.48;59.65
50550;BME280;36505;52.512;13.460;2023-07-13T03:58:33;100807.28;;;19.55;60.12
50550;BME280;36505;52.512;13.460;2023-07-13T04:00:59;100798.34;;;19.58;60.05
50550;BME280;36505;52.512;13.460;2023-07-13T04:03:26;100805.16;;;19.66;59.61
50550;BME280;36505;52.512;13.460;2023-07-13T04:05:55;100806.41;;;19.73;59.67
50550;BME280;36505;52.512;13.460;2023-07-13T04:08:25;100799.16;;;19.78;59.45
50550;BME280;36505;52.512;13.460;2023-07-13T04:10:50;100789.16;;;19.77;59.63
50550;BME280;36505;52.512;13.460;2023-07-13T04:13:16;100792.13;;;19.80;59.49
50550;BME280;36505;52.512;13.460;2023-07-13T04:15:41;100789.34;;;19.80;59.13
50550;BME280;36505;52.512;13.460;2023-07-13T04:18:07;100799.19;;;19.91;59.12
50550;BME280;36505;52.512;13.460;2023-07-13T04:20:32;100788.66;;;19.88;58.99
50550;BME280;36505;52.512;13.460;2023-07-13T04:22:57;100793.81;;;19.95;59.06
50550;BME280;36505;52.512;13.460;2023-07-13T04:25:23;100779.41;;;19.93;59.03
50550;BME280;36505;52.512;13.460;2023-07-13T04:27:49;100804.75;;;20.05;58.39
50550;BME280;36505;52.512;13.460;2023-07-13T04:30:15;100803.84;;;20.09;57.92
50550;BME280;36505;52.512;13.460;2023-07-13T04:32:40;100806.63;;;20.09;57.82
50550;BME280;36505;52.512;13.460;2023-07-13T04:35:06;100801.66;;;20.06;57.42
50550;BME280;36505;52.512;13.460;2023-07-13T04:37:31;100808.28;;;20.10;57.21
50550;BME280;36505;52.512;13.460;2023-07-13T04:39:57;100798.88;;;20.06;57.04
50550;BME280;36505;52.512;13.460;2023-07-13T04:42:22;100819.50;;;20.19;56.64
50550;BME280;36505;52.512;13.460;2023-07-13T04:44:51;100799.00;;;20.15;56.78
50550;BME280;36505;52.512;13.460;2023-07-13T04:47:18;100823.50;;;20.27;57.08
50550;BME280;36505;52.512;13.460;2023-07-13T04:49:44;100820.72;;;20.27;56.58
50550;BME280;36505;52.512;13.460;2023-07-13T04:52:11;100821.78;;;20.31;56.86
50550;BME280;36505;52.512;13.460;2023-07-13T04:54:37;100827.69;;;20.43;56.80
50550;BME280;36505;52.512;13.460;2023-07-13T04:57:03;100830.06;;;20.49;56.97
50550;BME280;36505;52.512;13.460;2023-07-13T04:59:34;100833.16;;;20.62;56.72
50550;BME280;36505;52.512;13.460;2023-07-13T05:02:00;100834.69;;;20.68;56.04
50550;BME280;36505;52.512;13.460;2023-07-13T05:04:26;100834.50;;;20.78;55.93
50550;BME280;36505;52.512;13.460;2023-07-13T05:06:52;100831.59;;;20.83;55.34
50550;BME280;36505;52.512;13.460;2023-07-13T05:09:17;100829.94;;;20.82;54.76
50550;BME280;36505;52.512;13.460;2023-07-13T05:11:43;100850.94;;;21.02;55.08
50550;BME280;36505;52.512;13.460;2023-07-13T05:14:08;100849.72;;;21.08;54.96
50550;BME280;36505;52.512;13.460;2023-07-13T05:16:35;100843.94;;;21.18;54.72
50550;BME280;36505;52.512;13.460;2023-07-13T05:19:00;100838.38;;;21.18;54.21
50550;BME280;36505;52.512;13.460;2023-07-13T05:21:26;100840.31;;;21.31;54.17
50550;BME280;36505;52.512;13.460;2023-07-13T05:23:51;100856.25;;;21.53;54.16
50550;BME280;36505;52.512;13.460;2023-07-13T05:26:16;100841.34;;;21.57;53.63
50550;BME280;36505;52.512;13.460;2023-07-13T05:28:42;100852.13;;;21.73;53.14
50550;BME280;36505;52.512;13.460;2023-07-13T05:31:09;100861.78;;;21.89;53.42
50550;BME280;36505;52.512;13.460;2023-07-13T05:33:34;100841.59;;;21.92;53.06
50550;BME280;36505;52.512;13.460;2023-07-13T05:36:00;100850.44;;;22.08;52.56
50550;BME280;36505;52.512;13.460;2023-07-13T05:38:28;100860.09;;;22.32;52.60
50550;BME280;36505;52.512;13.460;2023-07-13T05:40:55;100865.25;;;22.48;51.89
50550;BME280;36505;52.512;13.460;2023-07-13T05:43:21;100857.47;;;22.67;51.36
50550;BME280;36505;52.512;13.460;2023-07-13T05:45:47;100859.22;;;22.85;50.50
50550;BME280;36505;52.512;13.460;2023-07-13T05:48:14;100852.00;;;23.01;49.94
50550;BME280;36505;52.512;13.460;2023-07-13T05:50:40;100855.53;;;23.24;49.39
50550;BME280;36505;52.512;13.460;2023-07-13T05:53:05;100859.81;;;23.47;48.59
50550;BME280;36505;52.512;13.460;2023-07-13T05:55:31;100867.91;;;23.66;48.18
50550;BME280;36505;52.512;13.460;2023-07-13T05:57:56;100852.44;;;23.77;47.89
50550;BME280;36505;52.512;13.460;2023-07-13T06:00:23;100865.41;;;24.08;47.01
50550;BME280;36505;52.512;13.460;2023-07-13T06:02:49;100815.56;;;24.01;46.74
50550;BME280;36505;52.512;13.460;2023-07-13T06:05:15;100861.03;;;24.53;46.07
50550;BME280;36505;52.512;13.460;2023-07-13T06:07:41;100846.78;;;24.67;45.36
50550;BME280;36505;52.512;13.460;2023-07-13T06:10:07;100850.47;;;24.97;44.82
50550;BME280;36505;52.512;13.460;2023-07-13T06:12:32;100854.34;;;25.34;44.58
50550;BME280;36505;52.512;13.460;2023-07-13T06:14:58;100858.59;;;25.61;44.05
50550;BME280;36505;52.512;13.460;2023-07-13T06:17:23;100855.97;;;25.97;43.20
50550;BME280;36505;52.512;13.460;2023-07-13T06:19:48;100846.69;;;26.17;42.72
50550;BME280;36505;52.512;13.460;2023-07-13T06:22:14;100865.00;;;26.48;42.23
50550;BME280;36505;52.512;13.460;2023-07-13T06:24:39;100849.25;;;26.67;41.42
50550;BME280;36505;52.512;13.460;2023-07-13T06:27:05;100844.13;;;26.82;41.16
50550;BME280;36505;52.512;13.460;2023-07-13T06:29:30;100837.78;;;26.97;40.96
50550;BME280;36505;52.512;13.460;2023-07-13T06:31:56;100853.09;;;27.24;40.17
50550;BME280;36505;52.512;13.460;2023-07-13T06:34:21;100839.66;;;27.29;39.79
50550;BME280;36505;52.512;13.460;2023-07-13T06:36:47;100838.19;;;27.47;39.97
50550;BME280;36505;52.512;13.460;2023-07-13T06:39:12;100843.91;;;27.63;39.34
50550;BME280;36505;52.512;13.460;2023-07-13T06:41:37;100852.94;;;27.84;39.45
50550;BME280;36505;52.512;13.460;2023-07-13T06:44:04;100858.22;;;28.14;38.42
50550;BME280;36505;52.512;13.460;2023-07-13T06:46:29;100843.72;;;28.27;37.95
50550;BME280;36505;52.512;13.460;2023-07-13T06:48:55;100859.41;;;28.56;37.63
50550;BME280;36505;52.512;13.460;2023-07-13T06:51:21;100854.69;;;28.76;36.86
50550;BME280;36505;52.512;13.460;2023-07-13T06:53:46;100845.06;;;28.93;36.96
50550;BME280;36505;52.512;13.460;2023-07-13T06:56:12;100856.81;;;29.14;36.00
50550;BME280;36505;52.512;13.460;2023-07-13T06:58:38;100850.97;;;29.23;35.13
50550;BME280;36505;52.512;13.460;2023-07-13T07:01:04;100847.84;;;29.43;35.45
50550;BME280;36505;52.512;13.460;2023-07-13T07:03:30;100849.34;;;29.57;34.65
50550;BME280;36505;52.512;13.460;2023-07-13T07:06:11;100848.63;;;29.79;34.19
50550;BME280;36505;52.512;13.460;2023-07-13T07:08:37;100853.09;;;29.99;34.24
50550;BME280;36505;52.512;13.460;2023-07-13T07:11:02;100854.25;;;30.17;34.28
50550;BME280;36505;52.512;13.460;2023-07-13T07:13:28;100832.09;;;30.19;33.50
50550;BME280;36505;52.512;13.460;2023-07-13T07:15:53;100812.19;;;30.12;32.96
50550;BME280;36505;52.512;13.460;2023-07-13T07:18:19;100846.75;;;30.48;32.67
50550;BME280;36505;52.512;13.460;2023-07-13T07:20:44;100856.88;;;30.72;32.58
50550;BME280;36505;52.512;13.460;2023-07-13T07:23:09;100842.81;;;30.75;31.47
50550;BME280;36505;52.512;13.460;2023-07-13T07:25:35;100854.47;;;30.96;31.37
50550;BME280;36505;52.512;13.460;2023-07-13T07:28:02;100848.41;;;31.21;31.39
50550;BME280;36505;52.512;13.460;2023-07-13T07:30:28;100841.56;;;31.52;30.53
50550;BME280;36505;52.512;13.460;2023-07-13T07:32:53;100857.31;;;31.79;30.18
50550;BME280;36505;52.512;13.460;2023-07-13T07:35:21;100857.75;;;32.14;29.63
50550;BME280;36505;52.512;13.460;2023-07-13T07:37:47;100849.06;;;32.34;29.08
50550;BME280;36505;52.512;13.460;2023-07-13T07:40:13;100858.03;;;32.39;28.49
50550;BME280;36505;52.512;13.460;2023-07-13T07:42:38;100851.09;;;32.33;29.18
50550;BME280;36505;52.512;13.460;2023-07-13T07:45:03;100857.81;;;32.22;29.32
50550;BME280;36505;52.512;13.460;2023-07-13T07:47:29;100862.50;;;32.07;29.52
50550;BME280;36505;52.512;13.460;2023-07-13T07:49:55;100862.53;;;31.77;29.19
50550;BME280;36505;52.512;13.460;2023-07-13T07:52:20;100859.66;;;31.73;29.85
50550;BME280;36505;52.512;13.460;2023-07-13T07:54:45;100855.13;;;31.65;30.14
50550;BME280;36505;52.512;13.460;2023-07-13T07:57:11;100864.84;;;31.68;29.57
50550;BME280;36505;52.512;13.460;2023-07-13T07:59:36;100862.03;;;31.42;30.53
50550;BME280;36505;52.512;13.460;2023-07-13T08:02:02;100870.50;;;31.12;30.90
50550;BME280;36505;52.512;13.460;2023-07-13T08:04:28;100872.88;;;30.64;31.01
50550;BME280;36505;52.512;13.460;2023-07-13T08:06:53;100860.44;;;30.46;31.50
50550;BME280;36505;52.512;13.460;2023-07-13T08:09:21;100877.25;;;30.39;31.80
50550;BME280;36505;52.512;13.460;2023-07-13T08:11:46;100863.03;;;30.12;32.44
50550;BME280;36505;52.512;13.460;2023-07-13T08:14:12;100871.53;;;29.93;32.65
50550;BME280;36505;52.512;13.460;2023-07-13T08:16:37;100877.47;;;30.07;33.05
50550;BME280;36505;52.512;13.460;2023-07-13T08:19:03;100860.88;;;29.87;32.92
50550;BME280;36505;52.512;13.460;2023-07-13T08:21:29;100858.88;;;29.87;33.04
50550;BME280;36505;52.512;13.460;2023-07-13T08:23:55;100868.69;;;30.12;32.84
50550;BME280;36505;52.512;13.460;2023-07-13T08:26:21;100867.72;;;30.05;32.45
50550;BME280;36505;52.512;13.460;2023-07-13T08:28:47;100873.53;;;29.93;32.03
50550;BME280;36505;52.512;13.460;2023-07-13T08:31:13;100876.88;;;29.98;32.06
50550;BME280;36505;52.512;13.460;2023-07-13T08:33:39;100865.88;;;29.93;32.13
50550;BME280;36505;52.512;13.460;2023-07-13T08:36:06;100887.66;;;29.93;32.56
50550;BME280;36505;52.512;13.460;2023-07-13T08:38:32;100878.25;;;29.69;32.18
50550;BME280;36505;52.512;13.460;2023-07-13T08:40:58;100867.31;;;29.14;33.08
50550;BME280;36505;52.512;13.460;2023-07-13T08:43:29;100870.78;;;28.91;33.41
50550;BME280;36505;52.512;13.460;2023-07-13T08:46:33;100895.31;;;28.91;34.00
50550;BME280;36505;52.512;13.460;2023-07-13T08:49:07;100851.00;;;28.60;33.96
50550;BME280;36505;52.512;13.460;2023-07-13T08:51:59;100878.91;;;28.49;34.45
50550;BME280;36505;52.512;13.460;2023-07-13T08:54:50;100889.06;;;28.22;34.79
50550;BME280;36505;52.512;13.460;2023-07-13T08:57:21;100889.59;;;28.00;35.27
50550;BME280;36505;52.512;13.460;2023-07-13T08:59:50;100888.91;;;27.91;35.59
50550;BME280;36505;52.512;13.460;2023-07-13T09:05:38;100900.34;;;27.06;37.53
50550;BME280;36505;52.512;13.460;2023-07-13T09:10:36;100895.06;;;28.09;35.86
50550;BME280;36505;52.512;13.460;2023-07-13T09:13:25;100877.19;;;28.60;34.60
50550;BME280;36505;52.512;13.460;2023-07-13T09:15:53;100887.53;;;29.35;33.74
50550;BME280;36505;52.512;13.460;2023-07-13T09:18:27;100890.34;;;29.89;32.46
50550;BME280;36505;52.512;13.460;2023-07-13T09:23:34;100887.69;;;30.57;30.55
50550;BME280;36505;52.512;13.460;2023-07-13T09:26:05;100895.28;;;30.99;30.23
50550;BME280;36505;52.512;13.460;2023-07-13T09:28:39;100894.34;;;31.40;29.24
50550;BME280;36505;52.512;13.460;2023-07-13T09:31:17;100884.03;;;31.52;28.30
50550;BME280;36505;52.512;13.460;2023-07-13T09:33:44;100876.22;;;31.71;28.82
50550;BME280;36505;52.512;13.460;2023-07-13T09:36:31;100879.88;;;32.05;27.93
50550;BME280;36505;52.512;13.460;2023-07-13T09:39:04;100857.34;;;32.16;27.42
50550;BME280;36505;52.512;13.460;2023-07-13T09:41:53;100888.53;;;32.56;27.40
50550;BME280;36505;52.512;13.460;2023-07-13T09:46:56;100872.91;;;32.70;27.83
50550;BME280;36505;52.512;13.460;2023-07-13T09:49:26;100885.69;;;32.97;27.19
50550;BME280;36505;52.512;13.460;2023-07-13T09:52:03;100879.28;;;33.07;25.95
50550;BME280;36505;52.512;13.460;2023-07-13T09:54:33;100883.09;;;32.78;24.99
50550;BME280;36505;52.512;13.460;2023-07-13T09:57:00;100867.13;;;32.22;25.86
50550;BME280;36505;52.512;13.460;2023-07-13T09:59:32;100880.63;;;31.99;26.51
50550;BME280;36505;52.512;13.460;2023-07-13T10:01:58;100855.59;;;31.71;26.62
50550;BME280;36505;52.512;13.460;2023-07-13T10:04:32;100875.63;;;31.89;27.11
50550;BME280;36505;52.512;13.460;2023-07-13T10:07:11;100883.84;;;32.01;25.68
50550;BME280;36505;52.512;13.460;2023-07-13T10:09:38;100887.31;;;31.87;26.03
50550;BME280;36505;52.512;13.460;2023-07-13T10:12:04;100870.84;;;31.63;26.27
50550;BME280;36505;52.512;13.460;2023-07-13T10:14:39;100885.69;;;31.56;26.59
50550;BME280;36505;52.512;13.460;2023-07-13T10:17:10;100882.00;;;31.26;27.02
50550;BME280;36505;52.512;13.460;2023-07-13T10:19:37;100891.09;;;30.89;27.33
50550;BME280;36505;52.512;13.460;2023-07-13T10:25:18;100880.16;;;30.23;28.80
50550;BME280;36505;52.512;13.460;2023-07-13T10:27:45;100887.16;;;29.71;29.59
50550;BME280;36505;52.512;13.460;2023-07-13T10:32:38;100875.75;;;29.49;29.93
50550;BME280;36505;52.512;13.460;2023-07-13T10:35:04;100872.00;;;29.25;29.98
50550;BME280;36505;52.512;13.460;2023-07-13T10:40:34;100886.56;;;28.49;30.09
50550;BME280;36505;52.512;13.460;2023-07-13T10:43:06;100888.09;;;28.46;30.88
50550;BME280;36505;52.512;13.460;2023-07-13T10:45:35;100890.81;;;28.43;30.71
50550;BME280;36505;52.512;13.460;2023-07-13T10:48:03;100895.41;;;28.19;30.41
50550;BME280;36505;52.512;13.460;2023-07-13T10:50:29;100878.13;;;27.65;31.11
50550;BME280;36505;52.512;13.460;2023-07-13T10:53:03;100896.88;;;27.61;31.51
50550;BME280;36505;52.512;13.460;2023-07-13T10:58:22;100884.22;;;27.95;31.83
50550;BME280;36505;52.512;13.460;2023-07-13T11:00:52;100881.75;;;27.94;31.71
50550;BME280;36505;52.512;13.460;2023-07-13T11:03:20;100885.13;;;27.99;31.08
50550;BME280;36505;52.512;13.460;2023-07-13T11:05:50;100877.06;;;27.98;30.83
50550;BME280;36505;52.512;13.460;2023-07-13T11:10:56;100875.47;;;27.84;31.56
50550;BME280;36505;52.512;13.460;2023-07-13T11:21:34;100871.94;;;27.87;30.61
50550;BME280;36505;52.512;13.460;2023-07-13T11:24:28;100881.22;;;27.88;30.65
50550;BME280;36505;52.512;13.460;2023-07-13T11:29:32;100881.28;;;27.64;31.39
50550;BME280;36505;52.512;13.460;2023-07-13T11:32:01;100871.56;;;27.61;31.15
50550;BME280;36505;52.512;13.460;2023-07-13T11:34:45;100861.03;;;27.58;31.04
50550;BME280;36505;52.512;13.460;2023-07-13T11:37:12;100854.00;;;27.52;30.79
50550;BME280;36505;52.512;13.460;2023-07-13T11:39:42;100869.72;;;27.53;31.50
50550;BME280;36505;52.512;13.460;2023-07-13T11:42:12;100859.50;;;27.48;31.48
50550;BME280;36505;52.512;13.460;2023-07-13T11:44:46;100868.06;;;27.40;31.88
50550;BME280;36505;52.512;13.460;2023-07-13T11:47:18;100865.97;;;27.37;31.85
50550;BME280;36505;52.512;13.460;2023-07-13T11:49:49;100867.84;;;27.33;31.51
50550;BME280;36505;52.512;13.460;2023-07-13T11:52:20;100875.94;;;27.34;31.62
50550;BME280;36505;52.512;13.460;2023-07-13T11:54:49;100870.66;;;27.33;32.06
50550;BME280;36505;52.512;13.460;2023-07-13T12:00:09;100877.72;;;27.15;32.06
50550;BME280;36505;52.512;13.460;2023-07-13T12:02:39;100853.03;;;27.08;32.57
50550;BME280;36505;52.512;13.460;2023-07-13T12:05:17;100860.84;;;27.02;32.14
50550;BME280;36505;52.512;13.460;2023-07-13T12:07:44;100874.81;;;26.99;32.28
50550;BME280;36505;52.512;13.460;2023-07-13T12:10:29;100877.59;;;26.87;31.30
50550;BME280;36505;52.512;13.460;2023-07-13T12:12:58;100865.75;;;26.69;31.04
50550;BME280;36505;52.512;13.460;2023-07-13T12:18:00;100855.91;;;26.63;31.92
50550;BME280;36505;52.512;13.460;2023-07-13T12:20:29;100867.38;;;26.70;32.29
50550;BME280;36505;52.512;13.460;2023-07-13T12:23:04;100856.63;;;26.72;32.22
50550;BME280;36505;52.512;13.460;2023-07-13T12:25:31;100855.47;;;26.73;32.67
50550;BME280;36505;52.512;13.460;2023-07-13T12:28:28;100873.97;;;26.74;32.68
50550;BME280;36505;52.512;13.460;2023-07-13T12:30:59;100850.28;;;26.63;32.95
50550;BME280;36505;52.512;13.460;2023-07-13T12:33:29;100865.50;;;26.62;33.39
50550;BME280;36505;52.512;13.460;2023-07-13T12:35:55;100873.34;;;26.56;33.45
50550;BME280;36505;52.512;13.460;2023-07-13T12:38:21;100863.28;;;26.55;33.34
50550;BME280;36505;52.512;13.460;2023-07-13T12:40:51;100861.53;;;26.63;33.79
50550;BME280;36505;52.512;13.460;2023-07-13T12:43:20;100871.25;;;26.65;32.90
50550;BME280;36505;52.512;13.460;2023-07-13T12:46:14;100864.81;;;26.65;32.26
50550;BME280;36505;52.512;13.460;2023-07-13T12:48:47;100858.38;;;26.64;32.03
50550;BME280;36505;52.512;13.460;2023-07-13T12:51:13;100838.59;;;26.61;32.60
50550;BME280;36505;52.512;13.460;2023-07-13T12:53:42;100844.91;;;26.70;32.68
50550;BME280;36505;52.512;13.460;2023-07-13T12:56:18;100866.34;;;26.74;32.51
50550;BME280;36505;52.512;13.460;2023-07-13T12:58:46;100858.28;;;26.73;32.62
50550;BME280;36505;52.512;13.460;2023-07-13T13:01:17;100865.16;;;26.75;32.78
50550;BME280;36505;52.512;13.460;2023-07-13T13:03:55;100869.75;;;26.68;32.64
50550;BME280;36505;52.512;13.460;2023-07-13T13:06:29;100858.59;;;26.59;32.38
50550;BME280;36505;52.512;13.460;2023-07-13T13:08:59;100859.06;;;26.61;31.79
50550;BME280;36505;52.512;13.460;2023-07-13T13:11:26;100869.38;;;26.57;31.76
50550;BME280;36505;52.512;13.460;2023-07-13T13:13:52;100844.91;;;26.46;32.41
50550;BME280;36505;52.512;13.460;2023-07-13T13:18:54;100861.84;;;26.49;32.62
50550;BME280;36505;52.512;13.460;2023-07-13T13:21:22;100857.97;;;26.42;33.06
50550;BME280;36505;52.512;13.460;2023-07-13T13:23:48;100864.66;;;26.37;32.58
50550;BME280;36505;52.512;13.460;2023-07-13T13:26:15;100868.28;;;26.38;32.38
50550;BME280;36505;52.512;13.460;2023-07-13T13:28:44;100866.03;;;26.31;32.40
50550;BME280;36505;52.512;13.460;2023-07-13T13:31:10;100859.59;;;26.30;32.95